createdAt,value
2023-03-23T16:01:39.888Z,16.20
2023-03-23T16:06:42.931Z,16.30
2023-03-23T16:11:44.682Z,16.20
2023-03-23T16:16:52.732Z,16.10
2023-03-23T16:21:54.579Z,16.10
2023-03-23T16:26:56.262Z,16.00
2023-03-23T16:31:58.098Z,15.80
2023-03-23T16:36:59.916Z,15.70
2023-03-23T16:42:01.631Z,15.70
2023-03-23T16:47:03.463Z,15.60
2023-03-23T16:52:05.142Z,15.60
2023-03-23T16:57:07.682Z,15.60
2023-03-23T17:02:12.953Z,15.50
2023-03-23T17:07:14.704Z,15.50
2023-03-23T17:12:16.801Z,15.50
2023-03-23T17:17:18.954Z,15.40
2023-03-23T17:22:21.263Z,15.10
2023-03-23T17:27:23.138Z,14.80
2023-03-23T17:32:26.078Z,14.60
2023-03-23T17:37:27.789Z,14.50
2023-03-23T17:42:30.293Z,14.40
2023-03-23T17:47:32.283Z,14.20
2023-03-23T17:52:34.677Z,14.10
2023-03-23T17:57:36.406Z,14.10
2023-03-23T18:02:38.447Z,14.00
2023-03-23T18:07:40.381Z,13.90
2023-03-23T18:12:42.675Z,13.90
2023-03-23T18:17:48.370Z,13.80
2023-03-23T18:22:50.279Z,13.80
2023-03-23T18:27:52.155Z,13.70
2023-03-23T18:32:53.952Z,13.80
2023-03-23T18:37:55.718Z,13.80
2023-03-23T18:42:57.583Z,13.80
2023-03-23T18:47:59.312Z,13.70
2023-03-23T18:53:01.193Z,13.70
2023-03-23T18:58:04.315Z,13.60
2023-03-23T19:03:07.191Z,13.70
2023-03-23T19:08:09.408Z,13.80
2023-03-23T19:13:11.435Z,13.90
2023-03-23T19:18:13.191Z,13.90
2023-03-23T19:23:15.067Z,13.90
2023-03-23T19:33:21.880Z,13.80
2023-03-23T19:38:23.665Z,13.80
2023-03-23T19:43:27.543Z,13.70
2023-03-23T19:48:30.980Z,13.50
2023-03-23T19:53:34.222Z,13.40
2023-03-23T19:58:36.167Z,13.30
2023-03-23T20:03:38.611Z,13.30
2023-03-23T20:08:43.676Z,13.20
2023-03-23T20:13:47.063Z,13.20
2023-03-23T20:18:50.132Z,13.20
2023-03-23T20:23:54.919Z,13.20
2023-03-23T20:28:57.024Z,13.20
2023-03-23T20:34:02.308Z,13.10
2023-03-23T20:39:08.161Z,13.10
2023-03-23T20:44:15.856Z,13.00
2023-03-23T20:49:22.194Z,12.90
2023-03-23T20:54:24.565Z,12.80
2023-03-23T20:59:26.749Z,12.70
2023-03-23T21:04:30.247Z,12.70
2023-03-23T21:09:32.580Z,12.60
2023-03-23T21:14:34.482Z,12.60
2023-03-23T21:19:36.379Z,12.50
2023-03-23T21:24:38.579Z,12.40
2023-03-23T21:29:40.409Z,12.40
2023-03-23T21:34:43.303Z,12.40
2023-03-23T21:39:45.820Z,12.30
2023-03-23T21:44:50.574Z,12.30
2023-03-23T21:49:52.446Z,12.30
2023-03-23T21:54:54.200Z,12.40
2023-03-23T21:59:56.463Z,12.30
2023-03-23T22:04:58.313Z,12.40
2023-03-23T22:10:00.496Z,12.40
2023-03-23T22:15:04.562Z,12.40
2023-03-23T22:20:10.788Z,12.40
2023-03-23T22:25:13.422Z,12.40
2023-03-23T22:30:16.151Z,12.40
2023-03-23T22:35:17.950Z,12.30
2023-03-23T22:40:19.808Z,12.30
2023-03-23T22:45:23.619Z,12.30
2023-03-23T22:50:27.600Z,12.30
2023-03-23T22:55:29.418Z,12.40
2023-03-23T23:00:31.405Z,12.40
2023-03-23T23:05:34.467Z,12.40
2023-03-23T23:10:36.397Z,12.40
2023-03-23T23:15:41.704Z,12.40
2023-03-23T23:20:44.444Z,12.40
2023-03-23T23:25:46.856Z,12.40
2023-03-23T23:30:49.337Z,12.40
2023-03-23T23:35:51.838Z,12.40
2023-03-23T23:40:53.721Z,12.40
2023-03-23T23:45:55.718Z,12.60
2023-03-23T23:50:57.487Z,12.60
2023-03-23T23:56:04.054Z,12.70
